Time;durP1;ratioP1;P1;durP2;ratioP2;P2;SDS_P1;SDS_P2;PMS_P1;PMS_P2;Temp;Humidity;BMP_temperature;BMP_pressure;BME280_temperature;BME280_humidity;BME280_pressure;Samples;Min_cycle;Max_cycle;Signal;HPM_P1;HPM_P2
2024/03/13 00:04:49;;;;;;;;;;;;;;;20.65;36.71;95720.41;10274955;28;2825;-70
2024/03/13 00:09:50;;;;;;;;;;;;;;;20.64;36.83;95718.84;10291717;28;2876;-70
2024/03/13 00:14:51;;;;;;;;;;;;;;;20.61;37.60;95716.75;10298381;28;2844;-70
2024/03/13 00:19:51;;;;;;;;;;;;;;;20.59;38.68;95707.53;10315978;28;2885;-69
2024/03/13 00:24:52;;;;;;;;;;;;;;;20.57;35.97;95710.47;10290631;28;2844;-69
2024/03/13 00:29:52;;;;;;;;;;;;;;;20.55;36.42;95703.88;10296425;28;2871;-69
2024/03/13 00:34:52;;;;;;;;;;;;;;;20.55;35.54;95702.06;10292621;28;2850;-71
2024/03/13 00:39:53;;;;;;;;;;;;;;;20.52;37.62;95699.97;10313641;28;3238;-70
2024/03/13 00:44:53;;;;;;;;;;;;;;;20.49;37.54;95700.50;10297337;28;2910;-70
2024/03/13 00:49:53;;;;;;;;;;;;;;;20.48;36.98;95704.22;10323329;28;2849;-70
2024/03/13 00:54:53;;;;;;;;;;;;;;;20.45;37.63;95696.06;10304280;28;2885;-70
2024/03/13 00:59:54;;;;;;;;;;;;;;;20.43;38.59;95698.97;10318733;28;2785;-70
2024/03/13 01:04:54;;;;;;;;;;;;;;;20.41;38.23;95693.19;10287682;28;2832;-70
2024/03/13 01:09:55;;;;;;;;;;;;;;;20.41;37.82;95687.13;10289445;28;2887;-70
2024/03/13 01:14:55;;;;;;;;;;;;;;;20.39;36.21;95694.53;10288943;28;2784;-71
2024/03/13 01:19:57;;;;;;;;;;;;;;;20.36;37.16;95687.19;10271569;28;2789;-70
2024/03/13 01:24:58;;;;;;;;;;;;;;;20.35;35.89;95681.13;10284797;28;3022;-69
2024/03/13 01:29:58;;;;;;;;;;;;;;;20.32;37.10;95686.94;10304086;28;3241;-69
2024/03/13 01:34:58;;;;;;;;;;;;;;;20.31;36.51;95677.47;10288587;28;2801;-70
2024/03/13 01:40:04;;;;;;;;;;;;;;;20.30;37.32;95665.34;10304229;28;2941;-70
2024/03/13 01:55:46;;;;;;;;;;;;;;;20.26;36.45;95659.06;10299192;28;2811;-70
2024/03/13 02:06:07;;;;;;;;;;;;;;;20.23;36.92;95644.63;10288358;28;2875;-69
2024/03/13 02:11:07;;;;;;;;;;;;;;;20.20;37.95;95639.91;10281822;28;2789;-69
2024/03/13 02:16:08;;;;;;;;;;;;;;;20.18;36.79;95636.72;10298652;28;3262;-70
2024/03/13 02:21:09;;;;;;;;;;;;;;;20.19;37.09;95632.25;10327765;27;2824;-69
2024/03/13 02:26:10;;;;;;;;;;;;;;;20.17;35.74;95629.13;10295453;28;3013;-70
2024/03/13 02:31:12;;;;;;;;;;;;;;;20.15;36.68;95621.47;10321843;28;2773;-70
2024/03/13 02:36:13;;;;;;;;;;;;;;;20.14;38.26;95619.13;10305900;28;2877;-70
2024/03/13 02:41:13;;;;;;;;;;;;;;;20.13;36.62;95618.31;10295289;28;2947;-70
2024/03/13 02:46:14;;;;;;;;;;;;;;;20.09;38.41;95614.66;10304343;28;3305;-70
2024/03/13 02:51:15;;;;;;;;;;;;;;;20.10;36.39;95607.56;10282848;28;2830;-70
2024/03/13 02:56:15;;;;;;;;;;;;;;;20.09;36.91;95600.75;10299513;28;2783;-70
2024/03/13 03:01:16;;;;;;;;;;;;;;;20.08;37.25;95605.22;10292574;28;2880;-70
2024/03/13 03:06:16;;;;;;;;;;;;;;;20.07;37.12;95597.59;10322113;28;2871;-71
2024/03/13 03:11:16;;;;;;;;;;;;;;;20.05;36.83;95600.50;10307787;28;2804;-70
2024/03/13 03:16:18;;;;;;;;;;;;;;;20.04;37.06;95608.66;10293891;28;2872;-70
2024/03/13 03:21:19;;;;;;;;;;;;;;;20.02;36.75;95611.56;10281476;28;2889;-70
2024/03/13 03:26:19;;;;;;;;;;;;;;;20.02;36.59;95614.22;10322959;28;2955;-72
2024/03/13 03:31:19;;;;;;;;;;;;;;;20.01;37.01;95609.22;10310830;28;2876;-71
2024/03/13 03:36:20;;;;;;;;;;;;;;;19.99;36.09;95606.06;10283685;28;2842;-70
2024/03/13 03:41:20;;;;;;;;;;;;;;;19.97;36.32;95602.94;10294716;28;2885;-70
2024/03/13 03:46:20;;;;;;;;;;;;;;;19.95;36.81;95611.06;10319022;28;2808;-71
2024/03/13 03:51:21;;;;;;;;;;;;;;;19.96;36.20;95620.56;10320468;28;2852;-71
2024/03/13 03:56:21;;;;;;;;;;;;;;;19.94;37.44;95614.00;10296564;28;2849;-71
2024/03/13 04:01:24;;;;;;;;;;;;;;;19.93;36.27;95618.47;10299480;28;2846;-70
2024/03/13 04:06:25;;;;;;;;;;;;;;;19.93;36.92;95617.66;10311022;28;2800;-70
2024/03/13 04:11:25;;;;;;;;;;;;;;;19.91;36.77;95614.53;10277561;28;2857;-70
2024/03/13 04:16:25;;;;;;;;;;;;;;;19.90;36.49;95619.00;10325339;28;2814;-72
2024/03/13 04:21:27;;;;;;;;;;;;;;;19.89;36.37;95619.25;10296069;28;2776;-70
2024/03/13 04:26:29;;;;;;;;;;;;;;;19.87;36.76;95621.38;10298277;28;2899;-71
2024/03/13 04:31:29;;;;;;;;;;;;;;;19.86;36.43;95623.25;10288927;28;2795;-70
2024/03/13 04:36:29;;;;;;;;;;;;;;;19.85;36.02;95621.66;10312975;28;2936;-70
2024/03/13 04:41:31;;;;;;;;;;;;;;;19.83;36.61;95617.72;10289658;28;2835;-71
2024/03/13 04:46:31;;;;;;;;;;;;;;;19.84;35.90;95621.94;10290383;28;2822;-73
2024/03/13 04:51:31;;;;;;;;;;;;;;;19.83;37.05;95622.97;10300199;28;2765;-71
2024/03/13 04:56:32;;;;;;;;;;;;;;;19.81;36.62;95631.16;10288844;28;2835;-71
2024/03/13 05:01:33;;;;;;;;;;;;;;;19.80;36.99;95636.69;10322377;28;2793;-72
2024/03/13 05:06:33;;;;;;;;;;;;;;;19.79;36.91;95638.53;10291300;28;2874;-71
2024/03/13 05:11:33;;;;;;;;;;;;;;;19.83;37.11;95649.28;10315601;28;2783;-71
2024/03/13 05:16:33;;;;;;;;;;;;;;;19.85;37.76;95645.34;10290170;28;3295;-71
2024/03/13 05:21:34;;;;;;;;;;;;;;;19.93;37.98;95647.41;10375342;28;2791;-72
2024/03/13 05:26:35;;;;;;;;;;;;;;;20.00;38.00;95650.53;10323047;28;2823;-71
2024/03/13 05:31:35;;;;;;;;;;;;;;;20.06;37.39;95648.66;10293758;28;2868;-71
2024/03/13 05:36:36;;;;;;;;;;;;;;;20.10;37.33;95649.66;10298321;28;2814;-70
2024/03/13 05:41:36;;;;;;;;;;;;;;;20.14;37.24;95650.69;10289402;28;3157;-70
2024/03/13 05:46:36;;;;;;;;;;;;;;;20.18;37.35;95649.09;10285105;28;2947;-70
2024/03/13 05:51:37;;;;;;;;;;;;;;;20.23;37.49;95652.53;10297915;28;2834;-71
2024/03/13 05:56:37;;;;;;;;;;;;;;;20.28;37.47;95659.56;10318464;28;2788;-70
2024/03/13 06:01:37;;;;;;;;;;;;;;;20.32;36.80;95671.13;10323899;28;2959;-71
2024/03/13 06:06:38;;;;;;;;;;;;;;;20.33;37.13;95670.09;10288504;28;2851;-71
2024/03/13 06:11:40;;;;;;;;;;;;;;;20.38;37.02;95672.66;10315449;28;2860;-71
2024/03/13 06:16:41;;;;;;;;;;;;;;;20.40;37.17;95677.69;10288325;28;2883;-71
2024/03/13 06:21:41;;;;;;;;;;;;;;;20.43;37.44;95680.53;10301627;28;2923;-65
2024/03/13 06:26:45;;;;;;;;;;;;;;;20.46;37.09;95673.97;10291882;28;2873;-65
2024/03/13 06:31:46;;;;;;;;;;;;;;;20.49;37.16;95678.66;10300573;28;2893;-64
2024/03/13 06:36:46;;;;;;;;;;;;;;;20.49;36.59;95668.91;10305432;28;2908;-65
2024/03/13 06:41:46;;;;;;;;;;;;;;;20.52;36.66;95689.44;10283576;28;2857;-71
2024/03/13 06:46:46;;;;;;;;;;;;;;;20.52;37.17;95673.66;10288812;28;2943;-67
2024/03/13 06:51:46;;;;;;;;;;;;;;;20.56;36.24;95679.94;10287005;28;3195;-69
2024/03/13 06:56:50;;;;;;;;;;;;;;;20.56;36.91;95690.47;10319701;28;2838;-70
2024/03/13 07:01:55;;;;;;;;;;;;;;;20.58;37.14;95696.25;10324053;28;2872;-69
2024/03/13 07:06:59;;;;;;;;;;;;;;;20.60;37.46;95699.41;10296298;28;2779;-72
2024/03/13 07:11:59;;;;;;;;;;;;;;;20.63;36.51;95696.19;10295675;28;2904;-73
2024/03/13 07:17:00;;;;;;;;;;;;;;;20.63;36.78;95701.47;10320017;28;2784;-72
2024/03/13 07:22:00;;;;;;;;;;;;;;;20.65;36.88;95691.44;10289730;28;2869;-72
2024/03/13 07:27:02;;;;;;;;;;;;;;;20.66;36.60;95690.41;10275531;28;2932;-71
2024/03/13 07:32:02;;;;;;;;;;;;;;;20.67;36.61;95694.59;10328082;28;2875;-70
2024/03/13 07:37:03;;;;;;;;;;;;;;;20.73;36.37;95698.00;10318541;28;2870;-70
2024/03/13 07:42:03;;;;;;;;;;;;;;;20.77;36.04;95694.50;10287690;28;2803;-70
2024/03/13 07:47:03;;;;;;;;;;;;;;;20.73;36.04;95696.13;10290331;28;2862;-71
2024/03/13 07:52:04;;;;;;;;;;;;;;;20.76;36.78;95689.53;10298716;28;2883;-70
2024/03/13 07:57:04;;;;;;;;;;;;;;;20.76;35.72;95706.13;10289905;28;2925;-71
2024/03/13 08:02:05;;;;;;;;;;;;;;;20.78;35.84;95709.25;10286553;28;2799;-71
2024/03/13 08:07:05;;;;;;;;;;;;;;;20.74;36.21;95712.72;10278451;28;3145;-70
2024/03/13 08:12:06;;;;;;;;;;;;;;;20.76;36.43;95711.38;10289265;28;2764;-71
2024/03/13 08:17:07;;;;;;;;;;;;;;;20.77;36.23;95720.84;10291749;28;2889;-66
2024/03/13 08:22:07;;;;;;;;;;;;;;;20.74;35.53;95724.03;10271169;28;2891;-65
2024/03/13 08:27:08;;;;;;;;;;;;;;;20.81;36.10;95724.50;10314926;28;2794;-70
2024/03/13 08:32:09;;;;;;;;;;;;;;;20.77;36.91;95723.47;10324672;28;2777;-69
2024/03/13 08:37:10;;;;;;;;;;;;;;;20.77;36.38;95728.75;10290062;28;2807;-68
2024/03/13 08:42:11;;;;;;;;;;;;;;;20.75;36.45;95730.88;10273642;28;2871;-69
2024/03/13 08:47:11;;;;;;;;;;;;;;;20.78;36.80;95738.25;10290677;28;2858;-69
2024/03/13 08:52:12;;;;;;;;;;;;;;;20.78;36.77;95746.16;10295790;28;2779;-69
2024/03/13 08:57:13;;;;;;;;;;;;;;;20.81;36.57;95745.56;10300522;28;2941;-63
2024/03/13 09:02:13;;;;;;;;;;;;;;;20.83;36.33;95745.31;10281572;28;2838;-66
2024/03/13 09:07:14;;;;;;;;;;;;;;;20.83;35.98;95751.38;10292142;28;2851;-65
2024/03/13 09:12:15;;;;;;;;;;;;;;;20.80;35.96;95744.03;10291760;28;2815;-65
2024/03/13 09:17:18;;;;;;;;;;;;;;;20.81;36.13;95753.47;10292009;28;2893;-66
2024/03/13 09:22:18;;;;;;;;;;;;;;;20.88;35.96;95756.59;10309292;28;2810;-65
2024/03/13 09:27:19;;;;;;;;;;;;;;;20.87;35.97;95762.16;10285738;28;2873;-67
2024/03/13 09:32:22;;;;;;;;;;;;;;;20.91;36.21;95766.59;10284539;28;2885;-67
2024/03/13 09:37:24;;;;;;;;;;;;;;;20.88;36.07;95761.88;10283989;28;2851;-66
2024/03/13 09:42:25;;;;;;;;;;;;;;;20.87;35.81;95762.94;10282668;28;2911;-67
2024/03/13 09:47:26;;;;;;;;;;;;;;;20.92;35.47;95762.91;10322079;28;2803;-67
2024/03/13 09:52:28;;;;;;;;;;;;;;;20.90;36.25;95762.38;10288589;28;2824;-66
2024/03/13 09:57:29;;;;;;;;;;;;;;;20.93;35.64;95764.50;10316174;28;2799;-66
2024/03/13 10:02:29;;;;;;;;;;;;;;;20.94;36.18;95775.78;10284659;28;2772;-66
2024/03/13 10:07:29;;;;;;;;;;;;;;;20.93;35.63;95768.97;10286057;28;2921;-66
2024/03/13 10:12:29;;;;;;;;;;;;;;;20.94;35.82;95768.69;10286587;28;2830;-66
2024/03/13 10:17:32;;;;;;;;;;;;;;;20.92;36.17;95770.81;10315198;28;2788;-65
2024/03/13 10:22:32;;;;;;;;;;;;;;;20.95;35.83;95765.00;10319916;28;2824;-64
2024/03/13 10:27:33;;;;;;;;;;;;;;;20.93;35.54;95764.50;10358425;28;2965;-67
2024/03/13 10:32:34;;;;;;;;;;;;;;;20.94;36.00;95759.97;10294880;28;2881;-66
2024/03/13 10:37:35;;;;;;;;;;;;;;;20.95;35.77;95766.84;10292049;28;2858;-67
2024/03/13 10:42:35;;;;;;;;;;;;;;;20.93;35.90;95758.41;10314792;28;2894;-67
2024/03/13 10:47:35;;;;;;;;;;;;;;;20.93;36.42;95747.88;10316660;28;2858;-66
2024/03/13 10:52:37;;;;;;;;;;;;;;;20.95;36.37;95756.31;10291127;28;2758;-68
2024/03/13 10:57:38;;;;;;;;;;;;;;;20.95;36.26;95758.94;10274196;28;2783;-67
2024/03/13 11:02:41;;;;;;;;;;;;;;;20.99;36.36;95762.59;10291853;28;2864;-67
2024/03/13 11:07:41;;;;;;;;;;;;;;;20.99;36.34;95762.59;10292346;28;2948;-66
2024/03/13 11:12:43;;;;;;;;;;;;;;;21.01;36.24;95760.47;10278653;28;2876;-65
2024/03/13 11:17:44;;;;;;;;;;;;;;;21.02;36.65;95756.78;10314980;28;2901;-67
2024/03/13 11:22:44;;;;;;;;;;;;;;;21.08;37.11;95755.72;10313592;28;2816;-64
2024/03/13 11:27:48;;;;;;;;;;;;;;;21.11;37.31;95749.06;10293126;28;2811;-65
2024/03/13 11:32:51;;;;;;;;;;;;;;;21.09;37.04;95749.34;10289303;28;2838;-65
2024/03/13 11:37:51;;;;;;;;;;;;;;;21.13;36.29;95747.75;10292287;28;2921;-66
2024/03/13 11:42:52;;;;;;;;;;;;;;;21.12;36.97;95751.47;10285594;28;2835;-66
2024/03/13 11:47:57;;;;;;;;;;;;;;;21.11;37.10;95749.06;10298807;28;2865;-66
2024/03/13 11:53:00;;;;;;;;;;;;;;;21.11;37.19;95747.22;10291571;28;2803;-65
2024/03/13 11:58:02;;;;;;;;;;;;;;;21.10;37.26;95739.59;10287183;28;2936;-66
2024/03/13 12:03:02;;;;;;;;;;;;;;;21.11;36.84;95731.41;10286956;28;2798;-66
2024/03/13 12:08:03;;;;;;;;;;;;;;;21.12;36.55;95730.38;10287491;28;2803;-67
2024/03/13 12:13:03;;;;;;;;;;;;;;;21.10;38.25;95729.06;10284190;28;3035;-66
2024/03/13 12:18:05;;;;;;;;;;;;;;;21.09;37.99;95725.63;10327380;28;2843;-66
2024/03/13 12:23:08;;;;;;;;;;;;;;;21.11;37.22;95712.97;10286024;28;2847;-66
2024/03/13 12:28:12;;;;;;;;;;;;;;;20.58;37.65;95722.59;10285794;28;2908;-66
2024/03/13 12:33:13;;;;;;;;;;;;;;;19.63;38.04;95710.66;10276026;28;2815;-66
2024/03/13 12:38:14;;;;;;;;;;;;;;;19.54;38.39;95698.34;10287639;28;2894;-66
2024/03/13 12:43:16;;;;;;;;;;;;;;;19.85;38.44;95705.03;10288140;28;2897;-66
2024/03/13 12:48:16;;;;;;;;;;;;;;;19.99;38.17;95695.53;10318547;28;3331;-66
2024/03/13 12:53:17;;;;;;;;;;;;;;;20.16;38.77;95693.31;10289152;28;2867;-64
2024/03/13 12:58:17;;;;;;;;;;;;;;;20.26;38.29;95696.72;10282212;28;2900;-64
2024/03/13 13:03:18;;;;;;;;;;;;;;;20.35;38.09;95688.25;10316530;27;2905;-64
2024/03/13 13:08:21;;;;;;;;;;;;;;;20.43;38.06;95687.66;10315832;28;3212;-64
2024/03/13 13:13:21;;;;;;;;;;;;;;;20.48;38.31;95685.00;10317772;28;2945;-64
2024/03/13 13:18:21;;;;;;;;;;;;;;;20.54;37.83;95671.53;10283611;28;2842;-63
2024/03/13 13:23:24;;;;;;;;;;;;;;;20.58;37.72;95679.66;10283785;28;3112;-64
2024/03/13 13:28:25;;;;;;;;;;;;;;;20.58;37.46;95675.19;10296315;28;2903;-63
2024/03/13 13:33:26;;;;;;;;;;;;;;;20.63;37.22;95669.09;10300306;28;2854;-64
2024/03/13 13:38:28;;;;;;;;;;;;;;;20.63;37.00;95669.84;10285842;28;2945;-64
2024/03/13 13:43:32;;;;;;;;;;;;;;;20.65;37.11;95666.97;10294341;28;2827;-61
2024/03/13 13:48:32;;;;;;;;;;;;;;;20.68;36.89;95666.41;10285002;28;3135;-65
2024/03/13 13:53:32;;;;;;;;;;;;;;;20.71;36.30;95671.13;10271951;28;2877;-64
2024/03/13 13:58:33;;;;;;;;;;;;;;;20.68;36.47;95669.84;10285505;28;2869;-65
2024/03/13 14:03:33;;;;;;;;;;;;;;;20.68;36.66;95666.41;10282708;28;2854;-64
2024/03/13 14:08:35;;;;;;;;;;;;;;;20.68;36.78;95667.19;10287712;28;2835;-64
2024/03/13 14:13:41;;;;;;;;;;;;;;;20.68;37.16;95672.47;10286622;28;2865;-64
2024/03/13 14:18:42;;;;;;;;;;;;;;;20.68;36.56;95669.03;10323223;28;2849;-64
2024/03/13 14:23:42;;;;;;;;;;;;;;;20.64;36.15;95670.66;10272168;28;2863;-65
2024/03/13 14:28:46;;;;;;;;;;;;;;;20.64;36.03;95675.91;10287574;28;2768;-64
2024/03/13 14:33:48;;;;;;;;;;;;;;;20.59;36.46;95666.22;10290236;28;2852;-64
2024/03/13 14:38:50;;;;;;;;;;;;;;;20.61;35.84;95669.34;10303887;28;2878;-64
2024/03/13 14:43:51;;;;;;;;;;;;;;;20.61;36.06;95677.25;10283329;28;2908;-65
2024/03/13 14:48:51;;;;;;;;;;;;;;;20.60;35.93;95670.44;10290802;28;2788;-64
2024/03/13 14:53:51;;;;;;;;;;;;;;;20.60;36.21;95664.38;10290006;28;2828;-65
2024/03/13 14:58:51;;;;;;;;;;;;;;;20.60;36.14;95670.44;10325880;28;2899;-64
2024/03/13 15:03:56;;;;;;;;;;;;;;;20.61;36.76;95671.22;10328650;28;2788;-64
2024/03/13 15:08:57;;;;;;;;;;;;;;;20.62;36.54;95670.94;10294981;28;2823;-65
2024/03/13 15:13:58;;;;;;;;;;;;;;;20.64;37.11;95668.81;10294571;28;2847;-64
2024/03/13 15:18:58;;;;;;;;;;;;;;;20.66;36.66;95664.06;10318461;28;2776;-64
2024/03/13 15:23:59;;;;;;;;;;;;;;;20.68;37.08;95672.47;10317144;28;3089;-64
2024/03/13 15:28:59;;;;;;;;;;;;;;;20.69;37.20;95671.38;10293148;28;2819;-64
2024/03/13 15:33:59;;;;;;;;;;;;;;;20.72;36.81;95668.22;10290468;28;2879;-64
2024/03/13 15:39:00;;;;;;;;;;;;;;;20.74;37.35;95665.31;10318976;28;2901;-64
2024/03/13 15:44:00;;;;;;;;;;;;;;;20.80;37.65;95674.72;10272834;28;2860;-64
2024/03/13 15:49:00;;;;;;;;;;;;;;;20.82;36.85;95683.16;10285953;28;2819;-64
2024/03/13 15:54:00;;;;;;;;;;;;;;;20.86;37.49;95682.31;10285484;28;2879;-63
2024/03/13 15:59:01;;;;;;;;;;;;;;;20.87;36.95;95686.53;10290232;28;2795;-64
2024/03/13 16:04:01;;;;;;;;;;;;;;;20.87;37.65;95685.75;10298273;28;2903;-64
2024/03/13 16:09:06;;;;;;;;;;;;;;;20.87;38.08;95680.47;10284945;28;2905;-63
2024/03/13 16:14:06;;;;;;;;;;;;;;;20.87;37.89;95686.53;10282650;28;2886;-64
2024/03/13 16:19:07;;;;;;;;;;;;;;;20.91;37.57;95690.19;10310722;28;2804;-64
2024/03/13 16:24:07;;;;;;;;;;;;;;;20.92;37.39;95693.59;10288245;28;2897;-64
2024/03/13 16:29:07;;;;;;;;;;;;;;;20.91;37.72;95698.09;10289421;28;2882;-64
2024/03/13 16:34:08;;;;;;;;;;;;;;;20.94;37.64;95691.47;10292980;28;2881;-65
2024/03/13 16:39:09;;;;;;;;;;;;;;;21.01;37.31;95699.84;10288757;28;2874;-64
2024/03/13 16:44:10;;;;;;;;;;;;;;;20.97;37.70;95699.63;10328508;28;2958;-64
2024/03/13 16:49:11;;;;;;;;;;;;;;;20.98;38.15;95701.19;10287759;28;2811;-64
2024/03/13 16:54:11;;;;;;;;;;;;;;;20.96;38.09;95700.69;10294623;28;2922;-64
2024/03/13 16:59:12;;;;;;;;;;;;;;;21.00;38.40;95706.97;10306714;28;2815;-64
2024/03/13 17:04:12;;;;;;;;;;;;;;;20.99;38.16;95710.69;10290164;28;2933;-64
2024/03/13 17:09:14;;;;;;;;;;;;;;;21.01;38.57;95713.81;10288515;28;2828;-65
2024/03/13 17:14:14;;;;;;;;;;;;;;;21.01;38.59;95716.47;10289286;28;2922;-65
2024/03/13 17:19:15;;;;;;;;;;;;;;;21.03;38.20;95716.19;10321908;28;2760;-65
2024/03/13 17:24:16;;;;;;;;;;;;;;;21.02;38.71;95728.59;10301001;28;2876;-65
2024/03/13 17:29:16;;;;;;;;;;;;;;;20.99;38.53;95725.69;10294682;28;2799;-65
2024/03/13 17:34:18;;;;;;;;;;;;;;;21.03;38.83;95732.81;10285877;28;2849;-65
2024/03/13 17:39:19;;;;;;;;;;;;;;;21.08;37.99;95744.38;10285652;28;2901;-66
2024/03/13 17:44:20;;;;;;;;;;;;;;;21.02;38.72;95744.41;10285856;28;2835;-65
2024/03/13 17:49:20;;;;;;;;;;;;;;;21.03;38.66;95748.63;10291131;28;2884;-65
2024/03/13 17:54:21;;;;;;;;;;;;;;;21.06;38.69;95753.31;10288181;28;2883;-65
2024/03/13 17:59:21;;;;;;;;;;;;;;;21.07;38.75;95756.75;10292859;28;2908;-65
2024/03/13 18:04:21;;;;;;;;;;;;;;;21.06;38.33;95763.88;10286214;28;2830;-65
2024/03/13 18:09:22;;;;;;;;;;;;;;;21.06;38.43;95763.88;10287507;28;2884;-65
2024/03/13 18:14:23;;;;;;;;;;;;;;;21.07;39.07;95764.66;10286544;28;2807;-65
2024/03/13 18:19:23;;;;;;;;;;;;;;;21.05;39.07;95764.16;10269519;28;2958;-65
2024/03/13 18:24:23;;;;;;;;;;;;;;;21.08;38.20;95772.28;10292132;28;2851;-59
2024/03/13 18:29:24;;;;;;;;;;;;;;;21.06;38.30;95760.47;10290062;28;2852;-62
2024/03/13 18:34:24;;;;;;;;;;;;;;;21.08;38.78;95770.72;10294978;28;3006;-62
2024/03/13 18:39:24;;;;;;;;;;;;;;;21.06;38.83;95769.13;10315929;28;2974;-62
2024/03/13 18:44:25;;;;;;;;;;;;;;;21.08;39.23;95771.53;10271923;28;2834;-63
2024/03/13 18:49:26;;;;;;;;;;;;;;;21.05;38.78;95772.84;10299570;28;3093;-62
2024/03/13 18:54:26;;;;;;;;;;;;;;;21.06;39.27;95774.41;10299917;28;2902;-61
2024/03/13 18:59:29;;;;;;;;;;;;;;;21.10;39.38;95779.16;10293374;28;2797;-61
2024/03/13 19:04:30;;;;;;;;;;;;;;;21.09;39.27;95783.63;10295600;28;2798;-62
2024/03/13 19:09:30;;;;;;;;;;;;;;;21.14;39.59;95785.44;10294883;28;2851;-62
2024/03/13 19:14:31;;;;;;;;;;;;;;;21.19;38.77;95783.53;10298995;28;3030;-62
2024/03/13 19:19:31;;;;;;;;;;;;;;;21.20;38.84;95786.97;10290208;28;2926;-62
2024/03/13 19:24:31;;;;;;;;;;;;;;;21.28;39.00;95789.00;10293308;28;2953;-62
2024/03/13 19:29:33;;;;;;;;;;;;;;;21.34;38.96;95795.81;10298389;28;3258;-63
2024/03/13 19:34:34;;;;;;;;;;;;;;;21.37;39.31;95800.53;10294089;28;2878;-62
2024/03/13 19:39:35;;;;;;;;;;;;;;;21.38;39.26;95799.47;10294071;28;2827;-63
2024/03/13 19:44:35;;;;;;;;;;;;;;;21.33;39.51;95799.53;10290673;28;2948;-65
2024/03/13 19:49:36;;;;;;;;;;;;;;;21.43;38.37;95788.88;10297221;28;2795;-65
2024/03/13 19:54:36;;;;;;;;;;;;;;;21.40;38.39;95795.50;10292449;28;2870;-64
2024/03/13 19:59:37;;;;;;;;;;;;;;;21.42;37.87;95788.09;10291094;28;2859;-65
2024/03/13 20:04:38;;;;;;;;;;;;;;;21.43;37.86;95796.78;10314954;28;2843;-65
2024/03/13 20:09:41;;;;;;;;;;;;;;;21.43;38.34;95800.19;10295678;28;2869;-65
2024/03/13 20:14:42;;;;;;;;;;;;;;;21.50;37.55;95795.41;10323233;28;2835;-60
2024/03/13 20:19:43;;;;;;;;;;;;;;;21.46;37.99;95793.59;10290956;28;2807;-61
2024/03/13 20:24:47;;;;;;;;;;;;;;;21.41;38.24;95785.75;10297625;28;2997;-62
2024/03/13 20:29:47;;;;;;;;;;;;;;;21.49;37.49;95785.94;10289029;28;2993;-62
2024/03/13 20:34:47;;;;;;;;;;;;;;;21.51;36.75;95791.72;10301384;28;2930;-62
2024/03/13 20:39:49;;;;;;;;;;;;;;;21.48;37.44;95796.72;10289911;28;2924;-62
2024/03/13 20:44:49;;;;;;;;;;;;;;;21.44;37.03;95799.16;10287677;28;2859;-61
2024/03/13 20:49:50;;;;;;;;;;;;;;;21.39;37.11;95795.78;10299467;28;2981;-62
2024/03/13 20:54:51;;;;;;;;;;;;;;;21.37;36.93;95798.66;10292175;28;3000;-67
2024/03/13 20:59:52;;;;;;;;;;;;;;;21.37;36.87;95795.28;10308494;28;2980;-61
2024/03/13 21:04:53;;;;;;;;;;;;;;;21.36;36.64;95798.94;10292462;28;2816;-61
2024/03/13 21:09:53;;;;;;;;;;;;;;;21.31;37.41;95796.38;10285490;28;2777;-64
2024/03/13 21:14:54;;;;;;;;;;;;;;;21.42;36.79;95795.22;10288915;28;2961;-62
2024/03/13 21:19:55;;;;;;;;;;;;;;;21.46;36.79;95793.59;10293024;28;2928;-64
2024/03/13 21:24:55;;;;;;;;;;;;;;;21.43;35.60;95789.66;10289157;28;2903;-62
2024/03/13 21:29:55;;;;;;;;;;;;;;;21.49;36.43;95793.03;10294214;28;3004;-62
2024/03/13 21:34:55;;;;;;;;;;;;;;;21.44;35.34;95795.72;10295252;28;2798;-60
2024/03/13 21:39:58;;;;;;;;;;;;;;;21.39;36.16;95793.13;10291188;28;2853;-63
2024/03/13 21:44:58;;;;;;;;;;;;;;;21.40;35.92;95794.69;10285740;28;2858;-63
2024/03/13 21:49:59;;;;;;;;;;;;;;;21.38;36.84;95796.81;10290873;28;2985;-64
2024/03/13 21:55:00;;;;;;;;;;;;;;;21.34;36.65;95790.53;10288322;28;2842;-64
2024/03/13 22:00:00;;;;;;;;;;;;;;;21.26;38.08;95785.84;10314077;28;2773;-65
2024/03/13 22:05:01;;;;;;;;;;;;;;;21.20;38.87;95794.88;10292787;28;2921;-64
2024/03/13 22:10:03;;;;;;;;;;;;;;;21.15;37.99;95792.25;10322459;28;2930;-63
2024/03/13 22:15:05;;;;;;;;;;;;;;;21.06;38.75;95790.22;10287731;28;2894;-64
2024/03/13 22:20:07;;;;;;;;;;;;;;;20.97;42.05;95786.59;10286518;28;2816;-65
2024/03/13 22:25:07;;;;;;;;;;;;;;;20.93;39.86;95790.03;10284566;28;2839;-64
2024/03/13 22:30:08;;;;;;;;;;;;;;;20.90;41.43;95796.63;10296481;28;2828;-64
2024/03/13 22:35:08;;;;;;;;;;;;;;;20.87;40.97;95786.66;10282647;28;2916;-65
2024/03/13 22:40:11;;;;;;;;;;;;;;;20.87;42.09;95799.84;10293012;28;2851;-64
2024/03/13 22:45:14;;;;;;;;;;;;;;;20.83;42.57;95792.75;10288801;28;2982;-64
2024/03/13 22:50:14;;;;;;;;;;;;;;;20.80;42.70;95795.91;10297257;28;3149;-64
2024/03/13 22:55:15;;;;;;;;;;;;;;;20.75;42.89;95782.78;10309660;28;2932;-65
2024/03/13 23:05:24;;;;;;;;;;;;;;;20.69;41.79;95792.56;10284416;28;2830;-65
2024/03/13 23:10:25;;;;;;;;;;;;;;;20.68;42.56;95790.19;10299770;28;2814;-64
2024/03/13 23:15:25;;;;;;;;;;;;;;;20.66;41.58;95793.13;10323358;28;2806;-64
2024/03/13 23:20:26;;;;;;;;;;;;;;;20.62;43.01;95791.28;10296122;28;2888;-64
2024/03/13 23:25:26;;;;;;;;;;;;;;;20.60;41.98;95781.03;10297067;28;2843;-64
2024/03/13 23:30:26;;;;;;;;;;;;;;;20.58;42.43;95787.63;10294637;28;2851;-64
2024/03/13 23:35:27;;;;;;;;;;;;;;;20.56;42.12;95780.00;10294555;28;2774;-65
2024/03/13 23:40:33;;;;;;;;;;;;;;;20.54;42.40;95781.34;10320209;28;2927;-64
2024/03/13 23:45:33;;;;;;;;;;;;;;;20.51;43.03;95777.41;10318870;28;2886;-64
2024/03/13 23:50:34;;;;;;;;;;;;;;;20.50;42.37;95775.84;10290957;28;2909;-64
2024/03/13 23:55:34;;;;;;;;;;;;;;;20.47;43.00;95776.38;10282027;28;2814;-64
